createdAt,value
2023-01-11T00:02:12.844Z,94298.88
2023-01-11T00:04:39.244Z,94297.59
2023-01-11T00:07:06.733Z,94305.66
2023-01-11T00:09:31.891Z,94304.30
2023-01-11T00:11:58.229Z,94303.09
2023-01-11T00:14:24.573Z,94316.08
2023-01-11T00:16:50.926Z,94315.14
2023-01-11T00:19:17.273Z,94318.00
2023-01-11T00:21:43.618Z,94322.26
2023-01-11T00:24:09.967Z,94322.76
2023-01-11T00:26:36.316Z,94322.26
2023-01-11T00:29:02.661Z,94324.05
2023-01-11T00:31:29.059Z,94327.09
2023-01-11T00:33:55.354Z,94327.02
2023-01-11T00:36:21.720Z,94324.25
2023-01-11T00:38:48.072Z,94319.56
2023-01-11T00:41:14.418Z,94323.78
2023-01-11T00:43:40.781Z,94327.64
2023-01-11T00:46:08.120Z,94325.06
2023-01-11T00:48:33.514Z,94332.79
2023-01-11T00:50:59.875Z,94329.39
2023-01-11T00:53:26.215Z,94337.44
2023-01-11T00:55:52.558Z,94336.15
2023-01-11T00:58:18.892Z,94336.97
2023-01-11T01:00:45.247Z,94336.15
2023-01-11T01:03:11.587Z,94334.55
2023-01-11T01:05:38.083Z,94335.83
2023-01-11T01:08:04.435Z,94334.55
2023-01-11T01:10:30.797Z,94339.08
2023-01-11T01:12:57.154Z,94325.06
2023-01-11T01:15:23.501Z,94340.01
2023-01-11T01:17:49.842Z,94339.08
2023-01-11T01:20:16.193Z,94339.42
2023-01-11T01:22:42.537Z,94338.95
2023-01-11T01:25:08.898Z,94337.20
2023-01-11T01:27:35.248Z,94345.13
2023-01-11T01:30:01.620Z,94353.16
2023-01-11T01:32:27.979Z,94352.84
2023-01-11T01:34:54.362Z,94352.97
2023-01-11T01:37:20.698Z,94354.14
2023-01-11T01:39:47.042Z,94358.58
2023-01-11T01:42:13.395Z,94358.81
2023-01-11T01:44:40.913Z,94360.89
2023-01-11T01:47:07.249Z,94360.69
2023-01-11T01:49:33.633Z,94359.41
2023-01-11T01:51:59.967Z,94358.73
2023-01-11T01:54:26.312Z,94349.78
2023-01-11T01:56:52.695Z,94353.77
2023-01-11T01:59:19.049Z,94355.14
2023-01-11T02:01:45.416Z,94354.41
2023-01-11T02:04:11.749Z,94350.39
2023-01-11T02:06:38.130Z,94363.27
2023-01-11T02:09:04.446Z,94357.84
2023-01-11T02:11:30.790Z,94364.63
2023-01-11T02:13:57.141Z,94373.77
2023-01-11T02:16:23.515Z,94377.51
2023-01-11T02:18:49.839Z,94386.98
2023-01-11T02:21:16.214Z,94385.70
2023-01-11T02:23:42.556Z,94388.98
2023-01-11T02:26:08.930Z,94393.31
2023-01-11T02:28:36.486Z,94398.58
2023-01-11T02:31:01.668Z,94401.62
2023-01-11T02:33:27.983Z,94399.51
2023-01-11T02:35:54.324Z,94409.69
2023-01-11T02:38:20.696Z,94400.68
2023-01-11T02:40:47.032Z,94405.27
2023-01-11T02:43:13.389Z,94410.22
2023-01-11T02:45:39.730Z,94416.19
2023-01-11T02:48:06.083Z,94413.99
2023-01-11T02:50:32.435Z,94415.48
2023-01-11T02:52:58.780Z,94417.01
2023-01-11T02:55:25.124Z,94420.17
2023-01-11T02:57:51.474Z,94429.06
2023-01-11T03:00:17.824Z,94426.48
2023-01-11T03:02:44.188Z,94425.20
2023-01-11T03:05:10.524Z,94418.77
2023-01-11T03:07:36.864Z,94424.23
2023-01-11T03:10:03.212Z,94421.89
2023-01-11T03:12:29.562Z,94419.17
2023-01-11T03:14:57.850Z,94424.23
2023-01-11T03:17:22.256Z,94419.91
2023-01-11T03:19:48.597Z,94415.11
2023-01-11T03:22:14.950Z,94417.01
2023-01-11T03:24:41.300Z,94412.33
2023-01-11T03:27:07.657Z,94415.72
2023-01-11T03:29:33.993Z,94414.08
2023-01-11T03:32:00.343Z,94419.91
2023-01-11T03:34:26.692Z,94419.14
2023-01-11T03:36:53.040Z,94417.95
2023-01-11T03:39:19.413Z,94421.81
2023-01-11T03:41:45.775Z,94424.03
2023-01-11T03:44:12.109Z,94426.61
2023-01-11T03:46:38.499Z,94432.45
2023-01-11T03:49:04.833Z,94434.21
2023-01-11T03:51:31.164Z,94428.24
2023-01-11T03:53:57.532Z,94432.75
2023-01-11T03:56:24.834Z,94427.54
2023-01-11T03:58:50.221Z,94428.24
2023-01-11T04:01:16.660Z,94431.02
2023-01-11T04:03:42.919Z,94425.61
2023-01-11T04:06:09.272Z,94428.18
2023-01-11T04:08:35.619Z,94430.41
2023-01-11T04:11:01.969Z,94427.92
2023-01-11T04:13:28.354Z,94437.34
2023-01-11T04:15:54.696Z,94447.64
2023-01-11T04:18:21.086Z,94447.49
2023-01-11T04:20:47.412Z,94457.44
2023-01-11T04:23:13.743Z,94457.97
2023-01-11T04:25:40.095Z,94459.98
2023-01-11T04:28:06.467Z,94465.78
2023-01-11T04:30:32.805Z,94465.31
2023-01-11T04:32:59.203Z,94472.56
2023-01-11T04:35:25.542Z,94477.10
2023-01-11T04:37:51.883Z,94474.06
2023-01-11T04:40:18.228Z,94476.98
2023-01-11T04:42:44.565Z,94480.23
2023-01-11T04:45:10.937Z,94482.46
2023-01-11T04:47:37.271Z,94481.52
2023-01-11T04:50:03.614Z,94482.20
2023-01-11T04:52:29.972Z,94483.84
2023-01-11T04:54:56.318Z,94485.01
2023-01-11T04:57:22.673Z,94487.70
2023-01-11T04:59:49.019Z,94491.09
2023-01-11T05:02:15.387Z,94498.09
2023-01-11T05:04:41.800Z,94498.09
2023-01-11T05:07:08.108Z,94501.95
2023-01-11T05:09:34.442Z,94500.52
2023-01-11T05:12:00.875Z,94504.38
2023-01-11T05:14:27.219Z,94509.67
2023-01-11T05:16:53.628Z,94513.95
2023-01-11T05:19:19.979Z,94510.44
2023-01-11T05:21:46.369Z,94514.66
2023-01-11T05:24:12.745Z,94514.52
2023-01-11T05:26:39.100Z,94514.98
2023-01-11T05:29:05.490Z,94520.69
2023-01-11T05:31:31.893Z,94516.41
2023-01-11T05:33:58.249Z,94517.50
2023-01-11T05:36:24.642Z,94518.81
2023-01-11T05:38:52.381Z,94519.11
2023-01-11T05:41:17.379Z,94526.89
2023-01-11T05:43:43.745Z,94523.65
2023-01-11T05:46:10.220Z,94528.19
2023-01-11T05:48:36.476Z,94531.47
2023-01-11T05:51:02.857Z,94539.19
2023-01-11T05:53:30.319Z,94536.62
2023-01-11T05:55:56.704Z,94542.44
2023-01-11T05:58:23.059Z,94539.75
2023-01-11T06:00:49.459Z,94540.89
2023-01-11T06:03:15.865Z,94548.83
2023-01-11T06:05:42.202Z,94549.06
2023-01-11T06:08:08.623Z,94557.11
2023-01-11T06:10:35.014Z,94561.09
2023-01-11T06:13:01.346Z,94559.89
2023-01-11T06:15:27.731Z,94567.36
2023-01-11T06:17:54.083Z,94573.28
2023-01-11T06:20:20.809Z,94577.81
2023-01-11T06:22:47.151Z,94579.25
2023-01-11T06:25:13.551Z,94584.14
2023-01-11T06:27:39.945Z,94587.86
2023-01-11T06:30:06.332Z,94591.55
2023-01-11T06:32:32.682Z,94594.09
2023-01-11T06:34:59.066Z,94594.09
2023-01-11T06:37:25.414Z,94599.98
2023-01-11T06:39:51.788Z,94604.52
2023-01-11T06:42:18.134Z,94597.81
2023-01-11T06:44:44.521Z,94593.59
2023-01-11T06:47:10.862Z,94591.19
2023-01-11T06:49:37.256Z,94595.61
2023-01-11T06:52:03.607Z,94606.39
2023-01-11T06:54:29.987Z,94607.53
2023-01-11T06:56:56.332Z,94615.14
2023-01-11T06:59:25.438Z,94615.08
2023-01-11T07:01:51.811Z,94615.70
2023-01-11T07:04:18.185Z,94619.10
2023-01-11T07:06:44.531Z,94625.34
2023-01-11T07:09:10.942Z,94633.41
2023-01-11T07:11:37.289Z,94634.84
2023-01-11T07:14:03.695Z,94636.06
2023-01-11T07:16:30.036Z,94639.20
2023-01-11T07:18:56.432Z,94645.19
2023-01-11T07:21:22.762Z,94645.24
2023-01-11T07:23:49.150Z,94653.45
2023-01-11T07:26:15.551Z,94651.00
2023-01-11T07:28:41.945Z,94644.24
2023-01-11T07:31:08.331Z,94649.13
2023-01-11T07:33:34.696Z,94644.63
2023-01-11T07:36:01.038Z,94649.59
2023-01-11T07:38:27.423Z,94658.81
2023-01-11T07:43:20.184Z,94653.94
2023-01-11T07:45:47.159Z,94660.00
2023-01-11T07:48:12.934Z,94663.17
2023-01-11T07:50:39.271Z,94665.84
2023-01-11T07:53:05.677Z,94665.45
2023-01-11T07:55:32.012Z,94661.30
2023-01-11T07:57:58.482Z,94672.44
2023-01-11T08:00:24.905Z,94675.15
2023-01-11T08:02:51.338Z,94652.27
2023-01-11T08:05:17.632Z,94686.65
2023-01-11T08:07:44.017Z,94691.66
2023-01-11T08:10:10.360Z,94665.91
2023-01-11T08:12:36.793Z,94697.56
2023-01-11T08:15:03.123Z,94697.84
2023-01-11T08:17:29.528Z,94712.31
2023-01-11T08:19:55.866Z,94718.48
2023-01-11T08:22:22.261Z,94726.23
2023-01-11T08:24:48.619Z,94730.54
2023-01-11T08:27:15.047Z,94726.72
2023-01-11T08:29:41.367Z,94729.03
2023-01-11T08:32:07.733Z,94732.23
2023-01-11T08:34:34.638Z,94734.73
2023-01-11T08:37:00.560Z,94740.25
2023-01-11T08:39:26.940Z,94750.86
2023-01-11T08:41:53.495Z,94747.38
2023-01-11T08:44:33.343Z,94745.30
2023-01-11T08:46:46.451Z,94749.77
2023-01-11T08:49:12.749Z,94751.61
2023-01-11T08:51:39.143Z,94759.00
2023-01-11T08:54:05.495Z,94762.88
2023-01-11T08:56:31.926Z,94764.79
2023-01-11T08:58:58.253Z,94761.27
2023-01-11T09:01:24.719Z,94760.44
2023-01-11T09:03:51.020Z,94764.44
2023-01-11T09:06:17.398Z,94766.34
2023-01-11T09:08:43.761Z,94770.89
2023-01-11T09:11:10.319Z,94769.55
2023-01-11T09:13:36.489Z,94764.39
2023-01-11T09:16:02.919Z,94766.75
2023-01-11T09:18:29.232Z,94769.33
2023-01-11T09:20:55.617Z,94768.19
2023-01-11T09:23:21.966Z,94767.25
2023-01-11T09:25:48.348Z,94767.72
2023-01-11T09:28:14.721Z,94764.67
2023-01-11T09:30:41.102Z,94763.06
2023-01-11T09:33:07.458Z,94768.78
2023-01-11T09:35:33.867Z,94768.23
2023-01-11T09:38:00.214Z,94764.55
2023-01-11T09:40:26.619Z,94769.72
2023-01-11T09:42:52.970Z,94772.19
2023-01-11T09:45:19.361Z,94768.62
2023-01-11T09:47:45.693Z,94765.30
2023-01-11T09:50:12.094Z,94772.11
2023-01-11T09:52:38.462Z,94774.34
2023-01-11T09:55:04.830Z,94776.14
2023-01-11T09:57:31.175Z,94776.14
2023-01-11T09:59:57.580Z,94779.19
2023-01-11T10:02:23.930Z,94773.44
2023-01-11T10:04:50.363Z,94773.75
2023-01-11T10:07:16.713Z,94775.28
2023-01-11T10:18:29.957Z,94780.02
2023-01-11T10:18:33.077Z,94779.38
2023-01-11T10:19:38.555Z,94778.49
2023-01-11T10:21:55.034Z,94780.09
2023-01-11T10:24:21.464Z,94780.09
2023-01-11T10:26:47.815Z,94771.99
2023-01-11T10:29:14.230Z,94774.45
2023-01-11T10:31:40.619Z,94769.80
2023-01-11T10:34:08.397Z,94776.88
2023-01-11T10:36:33.286Z,94769.88
2023-01-11T10:38:59.686Z,94767.92
2023-01-11T10:41:26.264Z,94770.11
2023-01-11T10:43:52.425Z,94767.09
2023-01-11T10:46:18.777Z,94767.61
2023-01-11T10:48:45.164Z,94759.08
2023-01-11T10:51:11.546Z,94759.08
2023-01-11T10:53:37.930Z,94749.69
2023-01-11T10:56:04.276Z,94749.21
2023-01-11T10:58:30.675Z,94744.05
2023-01-11T11:00:57.147Z,94751.25
2023-01-11T11:03:23.458Z,94748.23
2023-01-11T11:05:49.791Z,94730.20
2023-01-11T11:08:16.279Z,94730.20
2023-01-11T11:10:42.621Z,94746.28
2023-01-11T11:13:09.015Z,94740.41
2023-01-11T11:15:35.394Z,94734.97
2023-01-11T11:18:01.768Z,94734.97
2023-01-11T11:20:28.127Z,94757.91
2023-01-11T11:22:54.538Z,94762.47
2023-01-11T11:25:20.935Z,94755.63
2023-01-11T11:27:47.326Z,94755.63
2023-01-11T11:30:13.720Z,94750.59
2023-01-11T11:32:40.068Z,94763.50
2023-01-11T11:35:06.420Z,94764.05
2023-01-11T11:37:32.806Z,94748.55
2023-01-11T11:40:00.467Z,94748.55
2023-01-11T11:42:25.532Z,94767.88
2023-01-11T11:44:51.868Z,94768.59
2023-01-11T11:47:18.280Z,94768.82
2023-01-11T11:49:44.646Z,94775.51
2023-01-11T11:52:11.021Z,94775.91
2023-01-11T11:54:37.356Z,94766.59
2023-01-11T11:57:03.753Z,94768.23
2023-01-11T11:59:30.129Z,94757.23
2023-01-11T12:01:56.600Z,94770.97
2023-01-11T12:04:22.974Z,94776.88
2023-01-11T12:06:49.474Z,94776.88
2023-01-11T12:09:15.628Z,94771.72
2023-01-11T12:11:42.347Z,94774.30
2023-01-11T12:14:08.680Z,94773.80
2023-01-11T12:16:35.222Z,94777.40
2023-01-11T12:19:01.531Z,94764.36
2023-01-11T12:21:27.929Z,94775.78
2023-01-11T12:23:54.278Z,94775.78
2023-01-11T12:26:20.673Z,94755.56
2023-01-11T12:28:47.041Z,94778.38
2023-01-11T12:31:13.514Z,94774.50
2023-01-11T12:33:39.798Z,94770.08
2023-01-11T12:36:06.283Z,94772.11
2023-01-11T12:38:32.668Z,94772.11
2023-01-11T12:40:59.069Z,94774.53
2023-01-11T12:43:25.427Z,94786.71
2023-01-11T12:45:51.874Z,94786.31
2023-01-11T12:48:18.159Z,94790.30
2023-01-11T12:50:44.555Z,94792.54
2023-01-11T12:53:10.895Z,94797.27
2023-01-11T12:55:37.337Z,94788.19
2023-01-11T12:58:03.692Z,94801.27
2023-01-11T13:00:30.179Z,94801.27
2023-01-11T13:02:56.607Z,94806.59
2023-01-11T13:05:22.935Z,94806.59
2023-01-11T13:07:49.275Z,94785.80
2023-01-11T13:10:15.685Z,94804.74
2023-01-11T13:12:42.053Z,94808.94
2023-01-11T13:15:08.455Z,94811.52
2023-01-11T13:17:34.843Z,94806.09
2023-01-11T13:20:01.243Z,94806.09
2023-01-11T13:22:27.603Z,94818.91
2023-01-11T13:24:54.001Z,94824.78
2023-01-11T13:27:20.345Z,94822.08
2023-01-11T13:29:46.766Z,94822.08
2023-01-11T13:32:13.111Z,94817.86
2023-01-11T13:34:39.490Z,94819.00
2023-01-11T13:37:05.819Z,94817.39
2023-01-11T13:39:32.242Z,94823.30
2023-01-11T13:41:58.577Z,94808.30
2023-01-11T13:44:25.045Z,94826.91
2023-01-11T13:46:51.409Z,94827.03
2023-01-11T13:49:17.797Z,94827.03
2023-01-11T13:51:44.198Z,94826.91
2023-01-11T13:54:10.654Z,94807.33
2023-01-11T13:56:36.975Z,94823.38
2023-01-11T13:59:03.374Z,94825.81
2023-01-11T14:01:29.828Z,94829.97
2023-01-11T14:03:56.182Z,94820.58
2023-01-11T14:06:22.463Z,94836.23
2023-01-11T14:08:48.855Z,94834.13
2023-01-11T14:11:15.202Z,94836.62
2023-01-11T14:13:41.597Z,94840.02
2023-01-11T14:16:08.301Z,94840.02
2023-01-11T14:18:34.622Z,94836.34
2023-01-11T14:21:00.973Z,94836.34
2023-01-11T14:23:27.429Z,94839.81
2023-01-11T14:25:53.784Z,94841.78
2023-01-11T14:28:20.170Z,94854.84
2023-01-11T14:30:46.656Z,94854.14
2023-01-11T14:33:13.009Z,94854.14
2023-01-11T14:35:39.351Z,94854.35
2023-01-11T14:38:05.758Z,94854.35
2023-01-11T14:40:32.119Z,94855.81
2023-01-11T14:42:58.541Z,94851.65
2023-01-11T14:45:24.885Z,94851.65
2023-01-11T14:47:52.287Z,94868.84
2023-01-11T14:50:18.637Z,94871.31
2023-01-11T14:52:45.039Z,94877.88
2023-01-11T14:55:11.382Z,94877.88
2023-01-11T14:57:37.794Z,94872.95
2023-01-11T15:00:04.193Z,94878.36
2023-01-11T15:02:30.593Z,94881.17
2023-01-11T15:04:57.061Z,94880.62
2023-01-11T15:07:23.353Z,94879.30
2023-01-11T15:09:49.676Z,94885.05
2023-01-11T15:12:16.061Z,94891.59
2023-01-11T15:14:42.423Z,94877.21
2023-01-11T15:17:08.764Z,94895.11
2023-01-11T15:19:35.157Z,94895.11
2023-01-11T15:22:01.572Z,94893.34
2023-01-11T15:24:27.960Z,94894.44
2023-01-11T15:26:54.392Z,94898.69
2023-01-11T15:29:20.697Z,94898.69
2023-01-11T15:31:47.127Z,94899.39
2023-01-11T15:34:13.467Z,94902.05
2023-01-11T15:36:39.812Z,94902.05
2023-01-11T15:39:06.208Z,94891.35
2023-01-11T15:41:32.523Z,94896.58
2023-01-11T15:43:58.935Z,94896.58
2023-01-11T15:46:25.317Z,94894.44
2023-01-11T15:48:51.654Z,94897.14
2023-01-11T15:51:18.006Z,94909.25
2023-01-11T15:53:44.383Z,94907.97
2023-01-11T15:56:10.734Z,94902.23
2023-01-11T15:58:37.136Z,94908.30
2023-01-11T16:01:03.558Z,94908.30
2023-01-11T16:03:30.016Z,94917.58
2023-01-11T16:05:56.345Z,94926.04
2023-01-11T16:08:22.736Z,94923.02
2023-01-11T16:10:49.095Z,94923.02
2023-01-11T16:13:15.490Z,94925.17
2023-01-11T16:15:41.836Z,94935.20
2023-01-11T16:18:08.210Z,94914.25
2023-01-11T16:20:36.736Z,94936.06
2023-01-11T16:23:03.111Z,94929.61
2023-01-11T16:25:29.453Z,94915.69
2023-01-11T16:27:55.837Z,94943.72
2023-01-11T16:30:22.174Z,94941.14
2023-01-11T16:32:48.580Z,94946.67
2023-01-11T16:35:14.971Z,94950.13
2023-01-11T16:37:41.348Z,94950.13
2023-01-11T16:40:07.679Z,94953.03
2023-01-11T16:42:34.067Z,94962.42
2023-01-11T16:45:01.467Z,94963.40
2023-01-11T16:47:27.841Z,94963.40
2023-01-11T16:49:54.175Z,94966.23
2023-01-11T16:52:20.556Z,94969.39
2023-01-11T16:54:46.910Z,94967.41
2023-01-11T16:57:15.118Z,94967.41
2023-01-11T16:59:39.622Z,94975.63
2023-01-11T17:02:06.061Z,94978.58
2023-01-11T17:04:32.347Z,94967.73
2023-01-11T17:06:58.752Z,94967.73
2023-01-11T17:09:25.083Z,94980.95
2023-01-11T17:11:51.482Z,94983.52
2023-01-11T17:14:17.812Z,94987.61
2023-01-11T17:16:44.293Z,94990.44
2023-01-11T17:19:10.533Z,94993.42
2023-01-11T17:21:36.924Z,94993.42
2023-01-11T17:24:03.272Z,94992.55
2023-01-11T17:26:29.662Z,94998.66
2023-01-11T17:28:56.016Z,94995.55
2023-01-11T17:31:22.445Z,95002.39
2023-01-11T17:33:48.733Z,95004.00
2023-01-11T17:36:15.108Z,94996.16
2023-01-11T17:38:41.450Z,95004.97
2023-01-11T17:41:07.868Z,95010.34
2023-01-11T17:43:34.183Z,95011.99
2023-01-11T17:46:00.590Z,94997.34
2023-01-11T17:48:26.969Z,94997.34
2023-01-11T17:50:53.365Z,95015.87
2023-01-11T17:53:19.705Z,95015.98
2023-01-11T17:55:46.084Z,95003.97
2023-01-11T17:58:12.431Z,95003.97
2023-01-11T18:00:38.826Z,95012.97
2023-01-11T18:03:05.147Z,95009.92
2023-01-11T18:05:31.537Z,95014.25
2023-01-11T18:07:57.899Z,95014.97
2023-01-11T18:10:24.284Z,95010.88
2023-01-11T18:12:50.624Z,95007.84
2023-01-11T18:15:17.031Z,95004.33
2023-01-11T18:17:43.375Z,95004.33
2023-01-11T18:20:09.758Z,95010.52
2023-01-11T18:22:36.128Z,95014.86
2023-01-11T18:25:02.501Z,95010.17
2023-01-11T18:27:28.847Z,94994.75
2023-01-11T18:29:55.229Z,95017.58
2023-01-11T18:32:21.558Z,95017.22
2023-01-11T18:34:47.948Z,95016.18
2023-01-11T18:37:14.309Z,95016.18
2023-01-11T18:39:40.704Z,95018.08
2023-01-11T18:42:07.055Z,95019.01
2023-01-11T18:44:33.433Z,95016.07
2023-01-11T18:46:59.779Z,95017.03
2023-01-11T18:49:26.185Z,95015.49
2023-01-11T18:51:52.538Z,95026.27
2023-01-11T18:54:18.925Z,95029.57
2023-01-11T18:56:45.266Z,95023.48
2023-01-11T18:59:11.658Z,95027.02
2023-01-11T19:01:52.723Z,95024.91
2023-01-11T19:04:04.388Z,95028.88
2023-01-11T19:06:30.737Z,95028.55
2023-01-11T19:08:57.120Z,95029.34
2023-01-11T19:11:23.497Z,95031.59
2023-01-11T19:13:49.891Z,95035.33
2023-01-11T19:16:16.226Z,95034.28
2023-01-11T19:18:42.628Z,95034.64
2023-01-11T19:21:08.965Z,95042.38
2023-01-11T19:23:35.397Z,95044.59
2023-01-11T19:26:01.803Z,95043.30
2023-01-11T19:28:28.194Z,95054.00
2023-01-11T19:30:54.576Z,95052.81
2023-01-11T19:33:20.917Z,95061.84
2023-01-11T19:35:47.266Z,95058.91
2023-01-11T19:38:13.666Z,95068.39
2023-01-11T19:40:40.012Z,95059.87
2023-01-11T19:43:06.397Z,95071.57
2023-01-11T19:45:32.749Z,95071.22
2023-01-11T19:47:59.134Z,95066.66
2023-01-11T19:50:25.487Z,95070.89
2023-01-11T19:52:51.865Z,95070.99
2023-01-11T19:55:18.214Z,95072.75
2023-01-11T19:57:44.620Z,95076.28
2023-01-11T20:00:13.463Z,95075.00
2023-01-11T20:02:37.360Z,95077.21
2023-01-11T20:05:05.552Z,95076.52
2023-01-11T20:07:31.940Z,95077.45
2023-01-11T20:09:58.280Z,95074.05
2023-01-11T20:12:24.672Z,95078.38
2023-01-11T20:14:51.046Z,95079.20
2023-01-11T20:17:17.462Z,95074.88
2023-01-11T20:19:43.810Z,95075.94
2023-01-11T20:22:10.198Z,95075.82
2023-01-11T20:24:36.566Z,95078.86
2023-01-11T20:27:03.034Z,95081.80
2023-01-11T20:29:29.295Z,95080.05
2023-01-11T20:31:55.812Z,95077.94
2023-01-11T20:34:22.073Z,95079.69
2023-01-11T20:36:48.522Z,95081.44
2023-01-11T20:39:14.886Z,95084.84
2023-01-11T20:41:41.369Z,95082.37
2023-01-11T20:44:07.698Z,95078.50
2023-01-11T20:46:34.142Z,95083.66
2023-01-11T20:49:00.470Z,95076.16
2023-01-11T20:51:26.827Z,95082.61
2023-01-11T20:53:53.169Z,95075.70
2023-01-11T20:56:19.550Z,95074.88
2023-01-11T20:58:45.891Z,95077.13
2023-01-11T21:01:12.312Z,95084.03
2023-01-11T21:03:38.630Z,95083.67
2023-01-11T21:06:05.013Z,95079.80
2023-01-11T21:08:31.360Z,95083.20
2023-01-11T21:10:57.742Z,95085.42
2023-01-11T21:13:24.091Z,95086.71
2023-01-11T21:15:50.518Z,95082.72
2023-01-11T21:18:16.834Z,95079.32
2023-01-11T21:20:43.222Z,95078.86
2023-01-11T21:23:09.563Z,95079.89
2023-01-11T21:25:36.031Z,95072.88
2023-01-11T21:28:02.408Z,95076.48
2023-01-11T21:30:28.808Z,95076.16
2023-01-11T21:32:55.151Z,95066.67
2023-01-11T21:35:21.544Z,95067.60
2023-01-11T21:37:47.878Z,95066.42
2023-01-11T21:40:15.494Z,95074.15
2023-01-11T21:42:40.607Z,95074.15
2023-01-11T21:45:06.989Z,95078.97
2023-01-11T21:47:33.327Z,95067.38
2023-01-11T21:49:59.743Z,95074.28
2023-01-11T21:52:26.069Z,95066.66
2023-01-11T21:54:52.461Z,95070.52
2023-01-11T21:57:18.798Z,95074.88
2023-01-11T21:59:45.179Z,95077.56
2023-01-11T22:02:11.569Z,95074.16
2023-01-11T22:04:37.943Z,95073.00
2023-01-11T22:07:04.280Z,95073.00
2023-01-11T22:09:30.694Z,95073.47
2023-01-11T22:11:57.014Z,95077.66
2023-01-11T22:14:23.413Z,95075.32
2023-01-11T22:16:49.749Z,95071.00
2023-01-11T22:19:16.142Z,95071.45
2023-01-11T22:21:42.488Z,95063.40
2023-01-11T22:24:10.359Z,95067.73
2023-01-11T22:26:35.246Z,95063.27
2023-01-11T22:29:01.645Z,95055.41
2023-01-11T22:31:29.094Z,95054.95
2023-01-11T22:33:54.370Z,95052.15
2023-01-11T22:36:20.741Z,95057.77
2023-01-11T22:38:49.619Z,95048.64
2023-01-11T22:41:15.968Z,95046.77
2023-01-11T22:43:42.372Z,95040.33
2023-01-11T22:46:08.793Z,95051.32
2023-01-11T22:48:35.167Z,95047.81
2023-01-11T22:51:01.513Z,95050.63
2023-01-11T22:53:27.902Z,95048.88
2023-01-11T22:55:54.240Z,95049.80
2023-01-11T22:58:20.634Z,95039.14
2023-01-11T23:00:46.986Z,95047.23
2023-01-11T23:03:13.432Z,95043.14
2023-01-11T23:05:39.705Z,95040.66
2023-01-11T23:08:06.096Z,95047.93
2023-01-11T23:10:32.435Z,95041.85
2023-01-11T23:12:58.834Z,95041.13
2023-01-11T23:15:25.182Z,95041.49
2023-01-11T23:17:51.562Z,95039.73
2023-01-11T23:20:17.910Z,95039.05
2023-01-11T23:22:44.303Z,95041.85
2023-01-11T23:25:10.650Z,95030.02
2023-01-11T23:27:37.049Z,95032.83
2023-01-11T23:30:04.713Z,95034.34
2023-01-11T23:32:29.773Z,95035.53
2023-01-11T23:34:56.123Z,95037.06
2023-01-11T23:37:22.509Z,95042.90
2023-01-11T23:39:48.857Z,95039.96
2023-01-11T23:42:15.282Z,95037.16
2023-01-11T23:44:41.626Z,95041.48
2023-01-11T23:47:08.126Z,95043.95
2023-01-11T23:49:34.487Z,95048.87
2023-01-11T23:52:00.879Z,95048.17
2023-01-11T23:54:28.320Z,95053.09
2023-01-11T23:56:54.689Z,95053.09
2023-01-11T23:59:21.045Z,95055.67
